Budapest, Hungary

6:52 AM CEST on September 15, 2014 (GMT +0200)
Budapest XIII. | Change Station
CLOSE
Current Station
Personal Weather Station
Location: Budapest, BUDAPEST
Elevation: 3 ft
Nearby Weather Stations

Elev 3 ft 47.54 °N, 19.08 °E | Updated 3 seconds ago

Light Rain
Light Rain Mist
59.7 °F
Feels Like 59.7 °F
N
1.9
Wind Variable Wind from North
Gusts 3.8 mph

Today
High -- | Low -- °F
--% Chance of Precip.
Yesterday
High -- | Low -- °F
Precip. -- in
6:20 AM 6:56 PM
Waning Gibbous, 59% visible
Pressure 30.01 in
Visibility 3.1 miles
Clouds
Dew Point 60 °F
Humidity 99%
Rainfall 0.00 in
Snow Depth Not available.
UV 0.0 out of 12
Pollen Not available.
Air Quality Not available.
Flu Activity Not available.
METAR LHBP 150430Z 32006KT 5000 -RA BR NSC 15/15 Q1016 NOSIG

More Conditions Fewer Conditions

Pressure 30.01 in
Visibility 3.1 miles
Clouds
Dew Point 60 °F
Humidity 99%
Rainfall 0.00 in
Snow Depth Not available.
UV 0.0 out of 12
Pollen Not available.
Air Quality Not available.
Flu Activity Not available.
METAR LHBP 150430Z 32006KT 5000 -RA BR NSC 15/15 Q1016 NOSIG

More Conditions Fewer Conditions

10-Day Weather Forecast

Almanac

Astronomy

Sep. 15, 2014 Rise Set
Actual Time 6:20 AM CEST 6:56 PM CEST
Civil Twilight 5:49 AM CEST 7:27 PM CEST
Nautical Twilight 5:12 AM CEST 8:03 PM CEST
Astronomical Twilight 4:34 AM CEST 8:42 PM CEST
Moon 10:59 PM CEST 1:29 PM CEST
Length of Visible Light 13h 37m
Length of Day
12h 35m
Tomorrow will be 3m 23s shorter.
Waning Gibbous, 59% of the Moon is Illuminated
Today
Waning Gibbous
Sep 15
Last Quarter
Sep 24
New
Oct 1
First Quarter
Oct 8
Full

Yesterday's Extremes

Country Highs Country Lows

Community

WunderPhotos

Upload Photos

1,753,401 photos uploaded!

Nearby

Snow Depth

Not available.

Earthquake Activity

City Distance Mag. Time & Date
No recent earthquake activity has been reported nearby.
Minimum magnitude displayed is 2.5.

Coastal Water Temperatures

Place Temperature
No Stations Reporting

Nearby Weather Stations